Flight Track Log - Related Links

Times and Time Zones

All times are in EDT time to prevent confusion due to time zone crossing. See the JBU56 flight status page for this flight to view local times or setup timezone preferences in your user account.

Time Position Orientation Groundspeed Altitude Reporting Facility
EDT Latitude Longitude Course Direction KTS MPH feet Rate Location/Type
Wed 10:14:05 AM 40.6667 -73.7333 21° North 176 203 2,000  Level New York TRACON
Wed 10:15:05 AM 40.6667 -73.6667 90° East 219 252 4,900 1,737 Climbing New York TRACON
Wed 10:15:59 AM 40.7167 -73.6167 37° Northeast 252 290 5,300 2,200 Climbing New York TRACON
Wed 10:16:00 AM 40.9481 -73.6010 21° North  Level FlightAware Approximate
Wed 10:17:00 AM 41.0307 -73.5574 27° Northeast  Level FlightAware Approximate
Wed 10:17:05 AM 40.7833 -73.5500 37° Northeast 267 307 9,300  Level New York TRACON
Wed 10:18:00 AM 41.1102 -73.5044 27° Northeast  Level FlightAware Approximate
Wed 10:19:00 AM 41.1908 -73.4546 21° North  Level FlightAware Approximate
Wed 10:19:14 AM 40.9339 -73.5639 356° North 266 306 14,700  Level Boston Center
Wed 10:20:14 AM 41.0278 -73.5544 North 299 344 17,000 1,900 Climbing Boston Center
Wed 10:21:14 AM 41.1200 -73.5036 23° Northeast 320 368 18,500 1,950 Climbing Boston Center
Wed 10:22:14 AM 41.2164 -73.4528 22° Northeast 345 397 20,900 1,250 Climbing Boston Center
Wed 10:23:14 AM 41.3106 -73.4044 21° North 361 415 21,000 50 Climbing Boston Center
Wed 10:24:14 AM 41.4089 -73.3533 21° North 366 421 21,000  Level Boston Center
Wed 10:25:14 AM 41.5094 -73.2800 29° Northeast 371 427 21,000  Level Boston Center
Wed 10:26:14 AM 41.5747 -73.1892 46° Northeast 371 427 21,000  Level Boston Center
Wed 10:27:14 AM 41.6628 -73.1208 30° Northeast 371 427 21,000  Level Boston Center
Wed 10:28:14 AM 41.7669 -73.1303 356° North 346 398 21,000  Level Boston Center
Wed 10:29:14 AM 41.8689 -73.1511 351° North 352 405 21,000  Level Boston Center
Wed 10:30:14 AM 41.9750 -73.1689 353° North 369 425 21,000  Level Boston Center
Wed 10:31:14 AM 42.0792 -73.1869 353° North 374 430 21,000  Level Boston Center
Wed 10:32:14 AM 42.1831 -73.2050 353° North 374 430 21,000  Level Boston Center
Wed 10:33:14 AM 42.2872 -73.2258 352° North 374 430 21,000  Level Boston Center
Wed 10:34:14 AM 42.3997 -73.2414 354° North 367 422 21,000  Level Boston Center
Wed 10:35:14 AM 42.4953 -73.2567 353° North 372 428 21,000  Level Boston Center
Wed 10:36:14 AM 42.6119 -73.2808 351° North 372 428 21,000  Level Boston Center
Wed 10:37:14 AM 42.7161 -73.2992 353° North 372 428 21,000  Level Boston Center
Wed 10:38:38 AM 42.8408 -73.3208 353° North 372 428 21,000  Level Boston Center
Wed 10:39:38 AM 42.9658 -73.3422 353° North 372 428 21,000  Level Boston Center
Wed 10:40:38 AM 43.0700 -73.3383 North 372 428 21,000  Level Boston Center
Wed 10:41:38 AM 43.1744 -73.3256 North 365 420 21,000  Level Boston Center
Wed 10:42:38 AM 43.2767 -73.3097 North 365 420 21,000  Level Boston Center
Wed 10:43:38 AM 43.3789 -73.2969 North 365 420 21,000 -750 Level Boston Center
Wed 10:44:38 AM 43.4811 -73.2842 North 365 420 19,500 -1,500 Descending Boston Center
Wed 10:45:38 AM 43.5831 -73.2742 North 365 420 18,000 -1,450 Descending Boston Center
Wed 10:46:38 AM 43.6811 -73.2583 North 365 420 16,600 -1,600 Descending Boston Center
Wed 10:47:38 AM 43.7772 -73.2453 North 348 400 14,800 -1,800 Descending Boston Center
Wed 10:48:38 AM 43.8708 -73.2464 360° North 343 395 13,000 -1,800 Descending Boston Center
Wed 10:49:38 AM 43.9667 -73.2592 355° North 343 395 11,200 -1,550 Descending Boston Center
Wed 10:50:38 AM 44.0519 -73.2692 355° North 329 379 9,900 -1,550 Descending Boston Center
Wed 10:51:38 AM 44.1311 -73.2789 355° North 291 335 8,100 -1,800 Descending Boston Center
Wed 10:52:38 AM 44.2081 -73.2917 353° North 279 321 6,300 -1,650 Descending Boston Center
Wed 10:53:38 AM 44.2747 -73.3100 349° North 274 315 4,800 -1,450 Descending Boston Center
Wed 10:54:38 AM 44.3453 -73.3369 345° North 269 310 3,400 -900 Descending Boston Center
Wed 10:55:38 AM 44.4117 -73.3672 342° North 257 296 3,000 -150 Descending Boston Center
Wed 10:56:38 AM 44.4678 -73.3942 341° North 229 264 3,100 -50 Climbing Boston Center
Wed 10:57:38 AM 44.5078 -73.3628 29° Northeast 161 185 2,900 -600 Descending Boston Center
Wed 10:58:38 AM 44.5247 -73.2961 70° East 149 171 1,900 -550 Descending Boston Center
Wed 10:59:38 AM 44.5253 -73.2408 89° East 140 161 1,800 -400 Descending Boston Center
Wed 11:00:38 AM 44.5025 -73.2025 130° Southeast 127 146 1,100 -700 Descending Boston Center

Login

Don't have an account? Register now (free) for customized features, flight alerts, and more!